Time;durP1;ratioP1;P1;durP2;ratioP2;P2;SDS_P1;SDS_P2;PMS_P1;PMS_P2;Temp;Humidity;BMP_temperature;BMP_pressure;BME280_temperature;BME280_humidity;BME280_pressure;Samples;Min_cycle;Max_cycle;Signal;HPM_P1;HPM_P2
2021/06/06 00:01:37;;;;;;;0.90;0.70;;;17.10;99.90;;;;;;5086278;28;20635;-61
2021/06/06 00:04:03;;;;;;;1.10;0.60;;;17.10;99.90;;;;;;5086359;28;20425;-61
2021/06/06 00:06:35;;;;;;;0.70;0.60;;;17.00;99.90;;;;;;5086840;28;20169;-61
2021/06/06 00:09:03;;;;;;;1.10;0.80;;;17.00;99.90;;;;;;5086206;28;20457;-61
2021/06/06 00:11:32;;;;;;;0.80;0.80;;;16.90;99.90;;;;;;5086510;28;20024;-61
2021/06/06 00:14:01;;;;;;;1.33;0.80;;;16.90;99.90;;;;;;5086524;28;20099;-60
2021/06/06 00:16:34;;;;;;;1.33;0.90;;;16.90;99.90;;;;;;5086373;28;20553;-61
2021/06/06 00:19:00;;;;;;;0.50;0.50;;;16.90;99.90;;;;;;5086350;28;20115;-61
2021/06/06 00:21:28;;;;;;;0.80;0.80;;;17.00;99.90;;;;;;5086673;28;20624;-60
2021/06/06 00:23:55;;;;;;;0.55;0.55;;;16.90;99.90;;;;;;5085838;28;20464;-60
2021/06/06 00:26:21;;;;;;;0.70;0.70;;;17.00;99.90;;;;;;5086699;28;20107;-61
2021/06/06 00:28:47;;;;;;;0.70;0.70;;;16.90;99.90;;;;;;5086783;28;20035;-60
2021/06/06 00:31:13;;;;;;;0.75;0.70;;;17.00;99.90;;;;;;5086757;28;20016;-60
2021/06/06 00:33:39;;;;;;;0.55;0.55;;;17.10;99.90;;;;;;5086550;28;20039;-61
2021/06/06 00:36:06;;;;;;;1.42;0.63;;;17.00;99.90;;;;;;5087177;28;20091;-60
2021/06/06 00:38:32;;;;;;;0.63;0.63;;;16.90;99.90;;;;;;5086577;28;20024;-61
2021/06/06 00:41:00;;;;;;;0.80;0.77;;;16.90;99.90;;;;;;5086280;28;20031;-60
2021/06/06 00:43:27;;;;;;;1.10;0.90;;;17.00;99.90;;;;;;5086607;28;20035;-61
2021/06/06 00:45:53;;;;;;;1.38;0.80;;;17.00;99.90;;;;;;5086499;28;20034;-61
2021/06/06 00:48:19;;;;;;;0.50;0.50;;;17.00;99.90;;;;;;5086615;28;20423;-60
2021/06/06 00:50:49;;;;;;;0.70;0.70;;;17.00;99.90;;;;;;5086151;28;20070;-61
2021/06/06 00:53:24;;;;;;;0.80;0.73;;;17.00;99.90;;;;;;5081365;28;20016;-61
2021/06/06 00:55:51;;;;;;;0.70;0.70;;;16.90;99.90;;;;;;5065809;28;20395;-60
2021/06/06 00:58:16;;;;;;;0.60;0.60;;;17.00;99.90;;;;;;5066130;28;20036;-60
2021/06/06 01:00:48;;;;;;;0.52;0.52;;;17.00;99.90;;;;;;5065700;28;20024;-60
2021/06/06 01:03:17;;;;;;;0.60;0.60;;;17.00;99.90;;;;;;5063346;28;20082;-61
2021/06/06 01:05:54;;;;;;;0.68;0.68;;;17.00;99.90;;;;;;5065689;28;20047;-61
2021/06/06 01:08:21;;;;;;;0.50;0.50;;;17.00;99.90;;;;;;5065730;28;20032;-61
2021/06/06 01:10:58;;;;;;;0.75;0.75;;;17.10;99.90;;;;;;5065327;28;20462;-60
2021/06/06 01:13:36;;;;;;;0.70;0.70;;;17.00;99.90;;;;;;5065979;28;20024;-61
2021/06/06 01:16:26;;;;;;;1.40;0.90;;;17.00;99.90;;;;;;5065895;28;20512;-60
2021/06/06 01:18:55;;;;;;;0.80;0.68;;;16.90;99.90;;;;;;5065351;28;20024;-60
2021/06/06 01:21:29;;;;;;;0.98;0.63;;;16.90;99.90;;;;;;5066185;28;20016;-60
2021/06/06 01:24:19;;;;;;;0.80;0.80;;;17.00;99.90;;;;;;5065272;28;20060;-61
2021/06/06 01:27:04;;;;;;;1.08;0.77;;;17.10;99.90;;;;;;5065382;28;20410;-61
2021/06/06 01:29:35;;;;;;;;;;;17.20;99.90;;;;;;5066012;28;20041;-60
2021/06/06 01:32:10;;;;;;;0.95;0.90;;;17.00;99.90;;;;;;5065312;28;19943;-60
2021/06/06 01:34:37;;;;;;;0.50;0.50;;;17.00;99.90;;;;;;5066016;28;20024;-60
2021/06/06 01:37:11;;;;;;;1.02;0.85;;;17.00;99.90;;;;;;5064635;28;20198;-61
2021/06/06 01:39:45;;;;;;;0.60;0.60;;;17.10;99.90;;;;;;5066160;28;20717;-60
2021/06/06 01:42:22;;;;;;;0.75;0.70;;;17.10;99.90;;;;;;5065318;28;20031;-60
2021/06/06 01:44:53;;;;;;;0.77;0.77;;;17.20;99.90;;;;;;5064903;28;20398;-60
2021/06/06 01:47:23;;;;;;;0.63;0.63;;;17.10;99.90;;;;;;5065581;28;20367;-60
2021/06/06 01:49:59;;;;;;;0.77;0.77;;;17.10;99.90;;;;;;5064970;28;20025;-61
2021/06/06 01:52:31;;;;;;;0.85;0.85;;;17.00;99.90;;;;;;5064365;28;20025;-60
2021/06/06 01:54:59;;;;;;;1.02;0.93;;;16.90;99.90;;;;;;5081956;28;20516;-60
2021/06/06 01:57:27;;;;;;;0.70;0.70;;;16.80;99.90;;;;;;5085524;28;20085;-60
2021/06/06 01:59:56;;;;;;;1.33;1.02;;;16.90;99.90;;;;;;5085386;28;20031;-60
2021/06/06 02:02:22;;;;;;;1.33;1.10;;;16.80;99.90;;;;;;5085327;28;20020;-60
2021/06/06 02:04:48;;;;;;;0.90;0.80;;;16.80;99.90;;;;;;5084914;28;20020;-60
2021/06/06 02:07:17;;;;;;;1.98;0.68;;;16.90;99.90;;;;;;5085359;28;20092;-60
2021/06/06 02:09:53;;;;;;;1.05;0.90;;;16.80;99.90;;;;;;5084984;28;20020;-60
2021/06/06 02:12:23;;;;;;;0.90;0.82;;;16.80;99.90;;;;;;5085184;28;20062;-60
2021/06/06 02:14:50;;;;;;;0.70;0.70;;;17.00;99.90;;;;;;5084322;28;20103;-60
2021/06/06 02:17:29;;;;;;;0.75;0.75;;;17.00;99.90;;;;;;5085060;28;20029;-60
2021/06/06 02:19:57;;;;;;;0.88;0.60;;;16.90;99.90;;;;;;5084875;28;20024;-60
2021/06/06 02:22:26;;;;;;;0.80;0.80;;;16.80;99.90;;;;;;5084424;28;20020;-61
2021/06/06 02:24:53;;;;;;;1.05;0.82;;;17.00;99.90;;;;;;5084859;28;20027;-60
2021/06/06 02:27:27;;;;;;;0.95;0.85;;;16.90;99.90;;;;;;5085186;28;20409;-60
2021/06/06 02:30:14;;;;;;;0.70;0.70;;;16.90;99.90;;;;;;5084771;28;20429;-60
2021/06/06 02:33:08;;;;;;;1.05;1.02;;;16.80;99.90;;;;;;5085687;28;20258;-60
2021/06/06 02:35:44;;;;;;;0.77;0.77;;;16.80;99.90;;;;;;5085038;28;20031;-60
2021/06/06 02:38:17;;;;;;;0.82;0.80;;;16.70;99.90;;;;;;5085913;28;20452;-60
2021/06/06 02:40:54;;;;;;;0.82;0.82;;;16.90;99.90;;;;;;5084650;28;20677;-60
2021/06/06 02:43:25;;;;;;;0.85;0.85;;;16.80;99.90;;;;;;5084937;28;20544;-60
2021/06/06 02:45:53;;;;;;;1.15;1.05;;;16.90;99.90;;;;;;5084667;28;20081;-60
2021/06/06 02:48:30;;;;;;;0.80;0.80;;;16.90;99.90;;;;;;5084957;28;20421;-60
2021/06/06 02:51:05;;;;;;;1.17;1.08;;;16.80;99.90;;;;;;5084386;28;20413;-60
2021/06/06 02:53:37;;;;;;;0.63;0.60;;;16.80;99.90;;;;;;5084921;28;20063;-60
2021/06/06 02:56:12;;;;;;;0.90;0.65;;;16.80;99.90;;;;;;5084220;28;20052;-60
2021/06/06 02:58:41;;;;;;;0.70;0.70;;;16.90;99.90;;;;;;5085466;28;20023;-60
2021/06/06 03:01:10;;;;;;;0.88;0.88;;;16.80;99.90;;;;;;5085560;28;20051;-60
2021/06/06 03:03:38;;;;;;;1.25;1.15;;;16.70;99.90;;;;;;5085516;28;20082;-60
2021/06/06 03:06:10;;;;;;;1.05;1.00;;;16.50;99.90;;;;;;5084367;28;20024;-60
2021/06/06 03:08:36;;;;;;;0.77;0.77;;;16.50;99.90;;;;;;5085549;28;20048;-60
2021/06/06 03:11:04;;;;;;;0.60;0.60;;;16.60;99.90;;;;;;5084508;28;20462;-60
2021/06/06 03:13:44;;;;;;;0.80;0.80;;;16.70;99.90;;;;;;5084587;28;20036;-60
2021/06/06 03:16:12;;;;;;;0.70;0.70;;;16.80;99.90;;;;;;5085395;28;20048;-60
2021/06/06 03:18:40;;;;;;;0.70;0.70;;;16.80;99.90;;;;;;5085155;28;20216;-60
2021/06/06 03:21:23;;;;;;;0.90;0.90;;;16.70;99.90;;;;;;5085282;28;20194;-60
2021/06/06 03:23:58;;;;;;;0.90;0.90;;;16.60;99.90;;;;;;5084450;28;20105;-60
2021/06/06 03:26:24;;;;;;;1.20;0.90;;;16.60;99.90;;;;;;5086307;28;20059;-60
2021/06/06 03:28:51;;;;;;;0.73;0.73;;;16.60;99.90;;;;;;5088095;28;20055;-60
2021/06/06 03:31:26;;;;;;;1.50;1.20;;;16.70;99.90;;;;;;5088196;28;20043;-60
2021/06/06 03:33:56;;;;;;;1.20;1.10;;;16.50;99.90;;;;;;5086350;28;20031;-60
2021/06/06 03:36:27;;;;;;;1.02;0.95;;;16.50;99.90;;;;;;5087703;28;20113;-60
2021/06/06 03:38:55;;;;;;;1.10;1.00;;;16.50;99.90;;;;;;5074125;28;20032;-60
2021/06/06 03:41:22;;;;;;;1.40;1.30;;;16.60;99.90;;;;;;5087907;28;20028;-61
2021/06/06 03:43:48;;;;;;;1.30;1.15;;;16.50;99.90;;;;;;5078465;28;20375;-60
2021/06/06 03:46:14;;;;;;;1.20;1.10;;;16.60;99.90;;;;;;5076192;28;20093;-60
2021/06/06 03:48:40;;;;;;;1.20;1.10;;;16.60;99.90;;;;;;5067851;28;20064;-60
2021/06/06 03:51:07;;;;;;;0.80;0.80;;;16.60;99.90;;;;;;5079614;28;20101;-60
2021/06/06 03:53:33;;;;;;;1.23;1.10;;;16.50;99.90;;;;;;5087831;28;20486;-60
2021/06/06 03:55:59;;;;;;;1.40;1.30;;;16.40;99.90;;;;;;5087195;28;20017;-60
2021/06/06 03:58:25;;;;;;;0.98;0.98;;;16.40;99.90;;;;;;5070510;28;20040;-60
2021/06/06 04:00:51;;;;;;;1.15;1.05;;;16.40;99.90;;;;;;5065503;28;20298;-60
2021/06/06 04:03:18;;;;;;;0.93;0.93;;;16.40;99.90;;;;;;5066899;28;20400;-60
2021/06/06 04:05:45;;;;;;;1.20;0.90;;;16.50;99.90;;;;;;5065451;28;20500;-59
2021/06/06 04:08:11;;;;;;;1.00;1.00;;;16.50;99.90;;;;;;5067088;28;20104;-61
2021/06/06 04:10:38;;;;;;;1.13;1.02;;;16.40;99.90;;;;;;5066710;28;20115;-60
2021/06/06 04:13:04;;;;;;;1.13;1.02;;;16.40;99.90;;;;;;5067315;28;20024;-60
2021/06/06 04:15:29;;;;;;;1.05;0.95;;;16.50;99.90;;;;;;5067411;28;20033;-60
2021/06/06 04:17:55;;;;;;;1.20;1.10;;;16.40;99.90;;;;;;5067841;28;20629;-60
2021/06/06 04:20:22;;;;;;;1.33;1.20;;;16.40;99.90;;;;;;5066294;28;20506;-61
2021/06/06 04:22:48;;;;;;;1.38;1.25;;;16.20;99.90;;;;;;5065264;28;20533;-60
2021/06/06 04:25:16;;;;;;;0.90;0.90;;;16.30;99.90;;;;;;5066703;28;20036;-60
2021/06/06 04:27:42;;;;;;;0.80;0.80;;;16.50;99.90;;;;;;5066396;28;20429;-60
2021/06/06 04:30:11;;;;;;;1.15;1.00;;;16.60;99.90;;;;;;5066545;28;20516;-60
2021/06/06 04:32:37;;;;;;;0.80;0.80;;;16.50;99.90;;;;;;5066549;28;20074;-60
2021/06/06 04:35:05;;;;;;;1.17;1.08;;;16.60;99.90;;;;;;5066928;28;20426;-60
2021/06/06 04:37:30;;;;;;;1.58;1.30;;;16.50;99.90;;;;;;5066383;28;20051;-60
2021/06/06 04:39:56;;;;;;;1.30;1.20;;;16.60;99.90;;;;;;5066599;28;20591;-60
2021/06/06 04:42:22;;;;;;;0.80;0.80;;;16.60;99.90;;;;;;5066833;28;20055;-60
2021/06/06 04:44:49;;;;;;;0.73;0.73;;;16.50;99.90;;;;;;5066297;28;20025;-60
2021/06/06 04:47:16;;;;;;;1.95;1.20;;;16.50;99.90;;;;;;5066426;28;20020;-60
2021/06/06 04:49:43;;;;;;;0.80;0.80;;;16.60;99.90;;;;;;5071677;28;20118;-60
2021/06/06 04:52:12;;;;;;;1.10;1.00;;;16.50;99.90;;;;;;5085657;28;20028;-60
2021/06/06 04:54:38;;;;;;;1.05;1.00;;;16.60;99.90;;;;;;5086075;28;20035;-60
2021/06/06 04:57:06;;;;;;;0.98;0.88;;;16.60;99.90;;;;;;5086948;28;20452;-60
2021/06/06 04:59:35;;;;;;;0.90;0.88;;;16.60;99.90;;;;;;5072863;28;20079;-60
2021/06/06 05:02:05;;;;;;;1.17;1.08;;;16.60;99.90;;;;;;5065494;28;20028;-60
2021/06/06 05:04:36;;;;;;;1.20;1.10;;;16.60;99.90;;;;;;5066113;28;20082;-60
2021/06/06 05:07:03;;;;;;;0.90;0.90;;;16.60;99.90;;;;;;5066551;28;20497;-60
2021/06/06 05:09:28;;;;;;;0.77;0.77;;;16.80;99.90;;;;;;5065936;28;20033;-60
2021/06/06 05:11:54;;;;;;;1.30;1.15;;;16.60;99.90;;;;;;5065574;28;20544;-60
2021/06/06 05:14:20;;;;;;;2.33;1.10;;;16.60;99.90;;;;;;5065893;28;20123;-60
2021/06/06 05:16:46;;;;;;;1.20;1.00;;;16.60;99.90;;;;;;5065188;28;20024;-60
2021/06/06 05:19:12;;;;;;;3.55;1.15;;;16.70;99.90;;;;;;5065576;28;20585;-60
2021/06/06 05:21:39;;;;;;;1.40;1.08;;;16.60;99.90;;;;;;5065493;28;20036;-60
2021/06/06 05:24:05;;;;;;;1.58;1.00;;;16.60;99.90;;;;;;5066312;28;20026;-60
2021/06/06 05:26:32;;;;;;;1.48;0.80;;;16.60;99.90;;;;;;5066006;28;20020;-60
2021/06/06 05:28:57;;;;;;;0.82;0.65;;;16.80;99.90;;;;;;5065531;28;20522;-60
2021/06/06 05:31:23;;;;;;;0.82;0.80;;;16.70;99.90;;;;;;5065037;28;20025;-60
2021/06/06 05:33:49;;;;;;;0.90;0.90;;;16.80;99.90;;;;;;5081683;28;20044;-60
2021/06/06 05:36:15;;;;;;;0.80;0.77;;;16.80;99.90;;;;;;5085655;28;20529;-60
2021/06/06 05:38:42;;;;;;;0.90;0.90;;;16.80;99.90;;;;;;5084159;28;20441;-60
2021/06/06 05:41:08;;;;;;;0.73;0.73;;;16.70;99.90;;;;;;5085158;28;20063;-60
2021/06/06 05:43:35;;;;;;;0.77;0.77;;;16.80;99.90;;;;;;5083641;28;20024;-60
2021/06/06 05:46:01;;;;;;;0.70;0.70;;;16.90;99.90;;;;;;5086052;28;20378;-60
2021/06/06 05:48:27;;;;;;;0.70;0.70;;;16.90;99.90;;;;;;5083340;28;20032;-60
2021/06/06 05:50:56;;;;;;;0.85;0.85;;;16.70;99.90;;;;;;5081266;28;20490;-60
2021/06/06 05:53:22;;;;;;;0.77;0.77;;;16.70;99.90;;;;;;5066117;28;20051;-60
2021/06/06 05:55:48;;;;;;;0.70;0.70;;;16.80;99.90;;;;;;5066976;28;20024;-60
2021/06/06 05:58:15;;;;;;;1.42;0.90;;;16.90;99.90;;;;;;5072569;28;20024;-60
2021/06/06 06:00:43;;;;;;;1.02;0.93;;;16.70;99.90;;;;;;5080620;28;20028;-60
2021/06/06 06:03:10;;;;;;;0.90;0.90;;;16.90;99.90;;;;;;5069317;28;20036;-60
2021/06/06 06:05:37;;;;;;;0.90;0.90;;;16.90;99.90;;;;;;5081950;28;20301;-60
2021/06/06 06:08:11;;;;;;;1.20;1.10;;;16.80;99.90;;;;;;5084818;28;20512;-60
2021/06/06 06:10:37;;;;;;;0.80;0.80;;;16.80;99.90;;;;;;5066167;28;20036;-60
2021/06/06 06:13:03;;;;;;;0.90;0.82;;;16.80;99.90;;;;;;5066410;28;20410;-60
2021/06/06 06:15:29;;;;;;;1.23;1.13;;;16.80;99.90;;;;;;5076074;28;20021;-60
2021/06/06 06:17:54;;;;;;;1.25;0.93;;;16.60;99.90;;;;;;5074853;28;20038;-59
2021/06/06 06:20:21;;;;;;;1.20;1.10;;;16.70;99.90;;;;;;5077217;28;20024;-60
2021/06/06 06:22:47;;;;;;;1.20;1.10;;;16.70;99.90;;;;;;5077372;28;20028;-60
2021/06/06 06:25:15;;;;;;;1.02;0.93;;;16.70;99.90;;;;;;5080859;28;20397;-60
2021/06/06 06:27:41;;;;;;;0.88;0.85;;;16.80;99.90;;;;;;5072341;28;20032;-60
2021/06/06 06:30:10;;;;;;;0.88;0.88;;;16.90;99.90;;;;;;5086537;28;20415;-60
2021/06/06 06:32:36;;;;;;;1.05;0.90;;;17.00;99.90;;;;;;5081942;28;20035;-60
2021/06/06 06:35:02;;;;;;;1.80;0.80;;;17.00;99.90;;;;;;5086382;28;20020;-60
2021/06/06 06:37:28;;;;;;;0.88;0.88;;;17.20;99.90;;;;;;5084660;28;20021;-60
2021/06/06 06:39:53;;;;;;;0.80;0.80;;;17.10;99.90;;;;;;5066447;28;20067;-60
2021/06/06 06:42:19;;;;;;;1.20;1.10;;;17.10;99.90;;;;;;5066329;28;20036;-60
2021/06/06 06:44:45;;;;;;;0.80;0.80;;;17.00;99.90;;;;;;5072441;28;20074;-60
2021/06/06 06:47:11;;;;;;;1.02;1.00;;;17.10;99.90;;;;;;5073457;28;20055;-60
2021/06/06 06:49:37;;;;;;;0.90;0.90;;;17.00;99.90;;;;;;5076039;28;20413;-60
2021/06/06 06:52:04;;;;;;;1.50;1.00;;;17.10;99.90;;;;;;5080229;28;20028;-60
2021/06/06 06:54:30;;;;;;;1.23;0.93;;;17.10;99.90;;;;;;5078712;28;20560;-60
2021/06/06 06:56:56;;;;;;;1.20;0.90;;;17.20;99.90;;;;;;5086487;28;20028;-60
2021/06/06 06:59:27;;;;;;;0.95;0.70;;;17.30;99.90;;;;;;5083904;28;20090;-60
2021/06/06 07:01:54;;;;;;;0.93;0.85;;;17.20;99.90;;;;;;5078484;28;20040;-60
2021/06/06 07:04:20;;;;;;;0.80;0.80;;;17.30;99.90;;;;;;5089365;28;20022;-60
2021/06/06 07:06:51;;;;;;;0.70;0.70;;;17.10;99.90;;;;;;5090105;28;20032;-60
2021/06/06 07:09:17;;;;;;;0.98;0.80;;;17.30;99.90;;;;;;5080516;28;20036;-60
2021/06/06 07:11:43;;;;;;;0.70;0.70;;;17.30;99.90;;;;;;5069204;28;20036;-60
2021/06/06 07:14:09;;;;;;;1.00;0.90;;;17.30;99.90;;;;;;5069652;28;20047;-60
2021/06/06 07:16:35;;;;;;;1.00;0.90;;;17.40;99.90;;;;;;5069075;28;20071;-60
2021/06/06 07:19:00;;;;;;;1.15;0.90;;;17.50;99.90;;;;;;5089125;28;20481;-59
2021/06/06 07:21:27;;;;;;;0.90;0.90;;;17.50;99.90;;;;;;5088849;28;20036;-60
2021/06/06 07:23:53;;;;;;;0.70;0.70;;;17.40;99.90;;;;;;5089241;28;20043;-60
2021/06/06 07:26:24;;;;;;;1.58;1.00;;;17.40;99.90;;;;;;5081254;28;20036;-59
2021/06/06 07:28:49;;;;;;;1.00;0.88;;;17.20;99.90;;;;;;5082063;28;20081;-60
2021/06/06 07:31:16;;;;;;;0.90;0.90;;;17.20;99.90;;;;;;5076512;28;20032;-60
2021/06/06 07:33:43;;;;;;;0.77;0.77;;;17.50;99.90;;;;;;5073663;28;20080;-60
2021/06/06 07:36:13;;;;;;;1.13;1.02;;;17.50;99.90;;;;;;5088917;28;20028;-59
2021/06/06 07:38:39;;;;;;;1.67;0.85;;;17.50;99.90;;;;;;5088491;28;20569;-59
2021/06/06 07:41:05;;;;;;;1.20;1.10;;;17.50;99.90;;;;;;5074598;28;20071;-60
2021/06/06 07:43:33;;;;;;;0.90;0.90;;;17.50;99.90;;;;;;5076146;28;20032;-59
2021/06/06 07:46:02;;;;;;;1.08;1.00;;;17.60;99.90;;;;;;5069728;28;20027;-60
2021/06/06 07:48:27;;;;;;;2.03;0.88;;;17.70;99.90;;;;;;5074764;28;20422;-60
2021/06/06 07:50:56;;;;;;;0.85;0.85;;;17.70;99.90;;;;;;5073308;28;20024;-60
2021/06/06 07:53:22;;;;;;;0.85;0.85;;;17.50;99.90;;;;;;5077566;28;20476;-60
2021/06/06 07:55:53;;;;;;;1.10;0.82;;;17.60;99.90;;;;;;5070729;28;20103;-60
2021/06/06 07:58:25;;;;;;;1.08;1.00;;;17.70;99.90;;;;;;5067122;28;20027;-59
2021/06/06 08:00:51;;;;;;;2.08;1.00;;;17.60;99.90;;;;;;5074125;28;20040;-60
2021/06/06 08:03:17;;;;;;;1.17;1.00;;;17.60;99.90;;;;;;5069848;28;20516;-60
2021/06/06 08:05:43;;;;;;;1.73;1.27;;;17.70;99.90;;;;;;5079438;28;20036;-58
2021/06/06 08:08:12;;;;;;;1.92;1.15;;;17.70;99.90;;;;;;5084494;28;20022;-59
2021/06/06 08:10:42;;;;;;;1.20;1.10;;;17.60;99.90;;;;;;5074611;28;20040;-60
2021/06/06 08:13:08;;;;;;;1.73;1.20;;;17.80;99.90;;;;;;5069333;28;20013;-59
2021/06/06 08:15:34;;;;;;;2.83;1.30;;;17.60;99.90;;;;;;5070430;28;20032;-59
2021/06/06 08:18:06;;;;;;;2.45;1.55;;;17.70;99.90;;;;;;5066719;28;20033;-59
2021/06/06 08:20:39;;;;;;;1.95;1.60;;;17.60;99.90;;;;;;5065407;28;20024;-60
2021/06/06 08:23:08;;;;;;;1.90;1.35;;;17.50;99.90;;;;;;5067707;28;20040;-59
2021/06/06 08:25:34;;;;;;;1.75;1.00;;;17.60;99.90;;;;;;5080207;28;20066;-60
2021/06/06 08:28:00;;;;;;;1.38;1.08;;;17.90;99.90;;;;;;5073861;28;20027;-59
2021/06/06 08:30:39;;;;;;;1.98;1.10;;;17.90;99.90;;;;;;5088311;28;20502;-59
2021/06/06 08:33:07;;;;;;;2.95;1.20;;;18.00;99.90;;;;;;5089097;28;20127;-59
2021/06/06 08:35:33;;;;;;;0.90;0.90;;;17.90;99.90;;;;;;5088833;28;20016;-59
2021/06/06 08:37:59;;;;;;;1.55;1.10;;;18.10;99.90;;;;;;5087244;28;20571;-59
2021/06/06 08:40:45;;;;;;;1.05;0.90;;;18.10;99.90;;;;;;5086245;28;20031;-59
2021/06/06 08:43:12;;;;;;;1.10;1.00;;;18.20;99.90;;;;;;5067340;28;20029;-59
2021/06/06 08:45:47;;;;;;;0.90;0.90;;;18.20;99.90;;;;;;5068245;28;20103;-59
2021/06/06 08:48:16;;;;;;;1.55;1.00;;;18.30;99.90;;;;;;5087871;28;20040;-59
2021/06/06 08:50:45;;;;;;;1.67;1.05;;;18.30;99.90;;;;;;5088242;28;20039;-59
2021/06/06 08:53:16;;;;;;;0.80;0.80;;;18.40;99.90;;;;;;5087659;28;20022;-59
2021/06/06 08:56:04;;;;;;;1.17;0.95;;;18.40;99.90;;;;;;5088330;28;20023;-59
2021/06/06 08:58:40;;;;;;;1.65;1.00;;;18.20;99.90;;;;;;5087192;28;20024;-59
2021/06/06 09:01:45;;;;;;;1.00;1.00;;;18.30;99.90;;;;;;5088265;28;20056;-59
2021/06/06 09:04:16;;;;;;;0.95;0.80;;;18.50;99.90;;;;;;5088330;28;20031;-58
2021/06/06 09:06:53;;;;;;;1.17;1.13;;;18.50;99.90;;;;;;5088272;28;20032;-58
2021/06/06 09:09:24;;;;;;;1.23;1.13;;;18.30;99.90;;;;;;5087045;28;20021;-58
2021/06/06 09:11:50;;;;;;;1.13;1.10;;;18.30;99.90;;;;;;5088783;28;20039;-59
2021/06/06 09:14:16;;;;;;;1.00;0.85;;;18.40;99.90;;;;;;5088294;28;20166;-59
2021/06/06 09:16:57;;;;;;;0.73;0.73;;;18.50;99.90;;;;;;5087618;28;20035;-58
2021/06/06 09:19:25;;;;;;;1.13;1.05;;;18.50;99.90;;;;;;5087735;28;20142;-58
2021/06/06 09:21:59;;;;;;;1.17;1.08;;;18.50;99.90;;;;;;5073201;28;20074;-58
2021/06/06 09:24:39;;;;;;;1.95;1.50;;;18.40;99.90;;;;;;5076784;28;20040;-58
2021/06/06 09:27:16;;;;;;;2.70;1.02;;;18.30;99.90;;;;;;5087537;28;20149;-58
2021/06/06 09:29:43;;;;;;;1.35;1.20;;;18.20;99.90;;;;;;5086769;28;20028;-58
2021/06/06 09:32:19;;;;;;;1.92;1.25;;;18.10;99.90;;;;;;5085746;28;20066;-58
2021/06/06 09:34:59;;;;;;;0.98;0.82;;;18.20;99.90;;;;;;5080350;28;20135;-59
2021/06/06 09:37:28;;;;;;;0.95;0.82;;;18.40;99.90;;;;;;5084923;28;20028;-58
2021/06/06 09:40:10;;;;;;;0.82;0.82;;;18.50;99.90;;;;;;5073390;28;20542;-58
2021/06/06 09:42:41;;;;;;;1.20;0.70;;;18.60;99.90;;;;;;5064659;28;20032;-58
2021/06/06 09:45:10;;;;;;;0.63;0.63;;;18.70;99.90;;;;;;5069070;28;20027;-58
2021/06/06 09:47:36;;;;;;;0.70;0.70;;;18.70;99.90;;;;;;5065946;28;20116;-58
2021/06/06 09:50:16;;;;;;;0.80;0.80;;;18.50;99.90;;;;;;5076970;28;20429;-58
2021/06/06 09:52:42;;;;;;;0.75;0.73;;;18.40;99.90;;;;;;5085276;28;20024;-59
2021/06/06 09:55:30;;;;;;;2.95;1.67;;;18.60;99.90;;;;;;5074980;28;20178;-58
2021/06/06 09:58:28;;;;;;;0.98;0.90;;;18.50;99.90;;;;;;5087927;28;20031;-58
2021/06/06 10:00:58;;;;;;;0.85;0.68;;;18.60;99.90;;;;;;5086259;28;20218;-58
2021/06/06 10:03:59;;;;;;;0.70;0.70;;;18.80;99.90;;;;;;5065412;28;20056;-58
2021/06/06 10:06:29;;;;;;;1.10;0.88;;;18.90;99.90;;;;;;5069894;28;20032;-57
2021/06/06 10:09:12;;;;;;;1.23;0.80;;;18.70;99.90;;;;;;5065946;28;20024;-58
2021/06/06 10:12:21;;;;;;;0.43;0.43;;;18.90;99.90;;;;;;5074187;28;20043;-58
2021/06/06 10:15:03;;;;;;;0.52;0.52;;;19.00;99.90;;;;;;5068937;28;20036;-58
2021/06/06 10:17:48;;;;;;;0.57;0.55;;;18.90;99.90;;;;;;5083145;28;20131;-58
2021/06/06 10:20:16;;;;;;;;;;;19.00;99.90;;;;;;5085720;28;20031;-58
2021/06/06 10:22:49;;;;;;;1.08;0.85;;;18.90;99.90;;;;;;5085735;28;20329;-58
2021/06/06 10:26:10;;;;;;;0.80;0.80;;;18.70;99.90;;;;;;5084157;28;20024;-58
2021/06/06 10:28:41;;;;;;;1.25;0.95;;;18.90;99.90;;;;;;5082021;28;20114;-58
2021/06/06 10:31:22;;;;;;;0.73;0.73;;;18.90;99.90;;;;;;5085509;28;20031;-58
2021/06/06 10:34:30;;;;;;;0.60;0.60;;;19.00;99.90;;;;;;5086193;28;20077;-58
2021/06/06 10:36:56;;;;;;;0.43;0.43;;;19.10;99.90;;;;;;5089764;28;20421;-58
2021/06/06 10:39:29;;;;;;;0.55;0.50;;;19.20;99.90;;;;;;5089723;28;20056;-58
2021/06/06 10:42:01;;;;;;;1.17;0.70;;;19.20;99.90;;;;;;5086968;28;20158;-57
2021/06/06 10:44:42;;;;;;;1.13;0.90;;;19.00;99.90;;;;;;5075471;28;20107;-57
2021/06/06 10:47:19;;;;;;;0.82;0.77;;;18.90;99.90;;;;;;5081099;28;20020;-58
2021/06/06 10:50:17;;;;;;;0.90;0.90;;;19.00;99.90;;;;;;5079337;28;20190;-58
2021/06/06 10:52:44;;;;;;;0.65;0.65;;;19.10;99.90;;;;;;5084588;28;20058;-58
2021/06/06 10:55:33;;;;;;;0.73;0.73;;;19.10;99.90;;;;;;5082627;28;20047;-58
2021/06/06 10:58:16;;;;;;;0.70;0.70;;;19.00;99.90;;;;;;5071956;28;20036;-61
2021/06/06 11:01:03;;;;;;;2.30;0.80;;;19.20;99.90;;;;;;5088772;28;20089;-61
2021/06/06 11:03:34;;;;;;;0.52;0.52;;;19.20;99.90;;;;;;5076811;28;20393;-58
2021/06/06 11:06:04;;;;;;;0.45;0.45;;;19.40;99.90;;;;;;5075194;28;20050;-58
2021/06/06 11:08:31;;;;;;;0.40;0.40;;;19.50;99.90;;;;;;5079950;28;20024;-58
2021/06/06 11:11:20;;;;;;;0.40;0.40;;;19.50;99.90;;;;;;5087690;28;20033;-58
2021/06/06 11:13:59;;;;;;;0.38;0.38;;;19.60;99.90;;;;;;5075754;28;20054;-58
2021/06/06 11:16:28;;;;;;;0.50;0.50;;;19.60;99.90;;;;;;5082965;28;20194;-57
2021/06/06 11:19:11;;;;;;;0.70;0.70;;;19.40;99.90;;;;;;5078314;28;20032;-58
2021/06/06 11:22:13;;;;;;;0.55;0.52;;;19.30;99.90;;;;;;5080988;28;20090;-58
2021/06/06 11:24:42;;;;;;;0.45;0.45;;;19.50;99.90;;;;;;5076578;28;20505;-57
2021/06/06 11:27:10;;;;;;;0.50;0.50;;;19.60;99.90;;;;;;5074206;28;20024;-57
2021/06/06 11:29:50;;;;;;;1.27;0.70;;;19.60;99.90;;;;;;5082226;28;20038;-58
2021/06/06 11:32:36;;;;;;;0.40;0.40;;;19.50;99.90;;;;;;5071864;28;20070;-58
2021/06/06 11:35:05;;;;;;;0.50;0.50;;;19.60;99.90;;;;;;5077595;28;20020;-58
2021/06/06 11:37:35;;;;;;;0.43;0.43;;;19.50;99.90;;;;;;5074144;28;20024;-58
2021/06/06 11:40:10;;;;;;;0.60;0.60;;;19.60;99.90;;;;;;5070702;28;20841;-58
2021/06/06 11:42:39;;;;;;;0.73;0.73;;;19.70;99.90;;;;;;5080104;28;20362;-58
2021/06/06 11:45:08;;;;;;;1.65;0.68;;;19.70;99.90;;;;;;5083708;28;20025;-58
2021/06/06 11:47:48;;;;;;;0.50;0.50;;;19.70;99.90;;;;;;5086947;28;20447;-58
2021/06/06 11:50:27;;;;;;;1.13;0.50;;;19.70;99.90;;;;;;5079997;28;20025;-58
2021/06/06 11:53:04;;;;;;;0.57;0.57;;;19.70;99.90;;;;;;5076627;28;20056;-58
2021/06/06 11:55:34;;;;;;;0.65;0.60;;;19.40;99.90;;;;;;5077229;28;20032;-58
2021/06/06 11:58:05;;;;;;;0.60;0.60;;;19.40;99.90;;;;;;5079146;28;20024;-58
2021/06/06 12:00:37;;;;;;;0.68;0.68;;;19.30;99.90;;;;;;5074201;28;20665;-58
2021/06/06 12:03:29;;;;;;;0.90;0.70;;;19.50;99.90;;;;;;5088055;28;20553;-58
2021/06/06 12:06:06;;;;;;;0.43;0.43;;;19.60;99.90;;;;;;5077259;28;20033;-58
2021/06/06 12:08:39;;;;;;;0.60;0.60;;;19.50;99.90;;;;;;5080313;28;20035;-58
2021/06/06 12:11:21;;;;;;;0.60;0.60;;;19.40;99.90;;;;;;5076440;28;20032;-58
2021/06/06 12:13:49;;;;;;;0.40;0.40;;;19.60;99.90;;;;;;5081079;28;20083;-58
2021/06/06 12:16:24;;;;;;;0.75;0.57;;;19.60;99.90;;;;;;5086525;28;20028;-58
2021/06/06 12:19:07;;;;;;;0.40;0.40;;;19.50;99.90;;;;;;5075962;28;20033;-58
2021/06/06 12:21:37;;;;;;;0.50;0.50;;;19.50;99.90;;;;;;5077165;28;20082;-58
2021/06/06 12:24:10;;;;;;;0.60;0.60;;;19.50;99.90;;;;;;5072269;28;20027;-58
2021/06/06 12:26:42;;;;;;;0.60;0.60;;;19.60;99.90;;;;;;5078886;28;20742;-58
2021/06/06 12:29:09;;;;;;;0.47;0.47;;;19.60;99.90;;;;;;5073614;28;20032;-58
2021/06/06 12:31:43;;;;;;;1.02;0.80;;;19.50;99.90;;;;;;5076282;28;20678;-58
2021/06/06 12:34:12;;;;;;;0.50;0.50;;;19.70;99.90;;;;;;5074823;28;20035;-58
2021/06/06 12:36:39;;;;;;;0.70;0.70;;;19.90;99.90;;;;;;5073544;28;20024;-58
2021/06/06 12:39:08;;;;;;;0.57;0.57;;;20.20;99.90;;;;;;5082297;28;20032;-58
2021/06/06 12:41:41;;;;;;;0.45;0.45;;;20.60;99.90;;;;;;5083052;28;20032;-58
2021/06/06 12:44:10;;;;;;;0.80;0.60;;;20.80;99.90;;;;;;5076589;28;20789;-58
2021/06/06 12:47:03;;;;;;;0.50;0.50;;;21.00;99.90;;;;;;5068747;28;20032;-57
2021/06/06 12:49:34;;;;;;;0.60;0.50;;;20.80;99.90;;;;;;5079181;28;20020;-57
2021/06/06 12:52:04;;;;;;;0.60;0.60;;;20.90;99.90;;;;;;5087558;28;20055;-57
2021/06/06 12:54:39;;;;;;;0.63;0.52;;;20.90;99.90;;;;;;5078597;28;20024;-57
2021/06/06 12:57:13;;;;;;;0.60;0.60;;;20.80;99.90;;;;;;5087571;28;20489;-57
2021/06/06 12:59:39;;;;;;;;;;;21.20;99.90;;;;;;5075222;28;20025;-57
2021/06/06 13:02:21;;;;;;;0.60;0.60;;;21.50;99.90;;;;;;5073522;28;19910;-57
2021/06/06 13:05:01;;;;;;;0.40;0.40;;;21.60;99.90;;;;;;5073842;28;20043;-53
2021/06/06 13:07:30;;;;;;;0.70;0.70;;;22.20;99.90;;;;;;5074287;28;20577;-57
2021/06/06 13:09:57;;;;;;;0.52;0.52;;;21.80;99.90;;;;;;5075388;28;20032;-57